createdAt,value
2018-05-13T00:02:01.620Z,64.14
2018-05-13T00:04:28.021Z,64.40
2018-05-13T00:06:55.166Z,64.56
2018-05-13T00:09:21.553Z,64.78
2018-05-13T00:11:48.030Z,64.45
2018-05-13T00:14:15.201Z,64.59
2018-05-13T00:16:42.372Z,65.35
2018-05-13T00:19:08.809Z,64.77
2018-05-13T00:21:35.238Z,65.46
2018-05-13T00:24:01.690Z,65.66
2018-05-13T00:26:28.308Z,65.48
2018-05-13T00:28:54.784Z,65.12
2018-05-13T00:31:21.194Z,65.99
2018-05-13T00:33:47.609Z,66.22
2018-05-13T00:36:14.327Z,66.40
2018-05-13T00:38:40.835Z,66.41
2018-05-13T00:41:07.193Z,66.27
2018-05-13T00:43:34.348Z,66.84
2018-05-13T00:46:01.086Z,66.92
2018-05-13T00:48:27.450Z,66.75
2018-05-13T00:50:53.847Z,67.11
2018-05-13T00:53:21.089Z,67.44
2018-05-13T00:55:48.234Z,67.36
2018-05-13T00:58:16.140Z,67.64
2018-05-13T01:00:42.694Z,67.93
2018-05-13T01:03:09.051Z,68.41
2018-05-13T01:05:35.838Z,67.99
2018-05-13T01:08:02.325Z,67.63
2018-05-13T01:10:28.733Z,67.94
2018-05-13T01:12:55.365Z,67.97
2018-05-13T01:15:21.764Z,68.73
2018-05-13T01:17:48.155Z,68.09
2018-05-13T01:20:14.598Z,68.72
2018-05-13T01:22:40.995Z,69.26
2018-05-13T01:25:07.497Z,69.26
2018-05-13T01:27:33.996Z,70.30
2018-05-13T01:30:00.388Z,70.29
2018-05-13T01:32:26.841Z,70.41
2018-05-13T01:34:54.018Z,69.94
2018-05-13T01:37:20.410Z,69.76
2018-05-13T01:39:46.873Z,69.34
2018-05-13T01:42:13.559Z,69.44
2018-05-13T01:44:39.945Z,69.47
2018-05-13T01:47:07.195Z,69.13
2018-05-13T01:49:34.530Z,68.31
2018-05-13T01:52:01.232Z,68.14
2018-05-13T01:54:27.870Z,68.25
2018-05-13T01:56:54.361Z,67.97
2018-05-13T01:59:20.885Z,67.55
2018-05-13T02:01:47.275Z,67.44
2018-05-13T02:04:14.014Z,66.82
2018-05-13T02:06:40.430Z,67.04
2018-05-13T02:09:07.601Z,67.26
2018-05-13T02:11:34.032Z,67.35
2018-05-13T02:14:00.478Z,67.39
2018-05-13T02:16:26.951Z,67.28
2018-05-13T02:18:54.819Z,66.78
2018-05-13T02:21:21.168Z,66.55
2018-05-13T02:23:48.353Z,66.24
2018-05-13T02:26:14.755Z,65.86
2018-05-13T02:28:41.998Z,65.94
2018-05-13T02:31:09.173Z,65.63
2018-05-13T02:33:35.646Z,65.71
2018-05-13T02:36:02.038Z,65.39
2018-05-13T02:38:28.622Z,65.93
2018-05-13T02:40:55.027Z,64.49
2018-05-13T02:43:21.640Z,64.32
2018-05-13T02:45:48.038Z,64.47
2018-05-13T02:48:15.171Z,64.27
2018-05-13T02:50:43.094Z,64.10
2018-05-13T02:53:09.521Z,64.19
2018-05-13T02:55:37.090Z,64.65
2018-05-13T02:58:03.742Z,65.02
2018-05-13T03:00:30.224Z,65.27
2018-05-13T03:02:56.609Z,65.71
2018-05-13T03:05:23.012Z,65.68
2018-05-13T03:07:50.784Z,65.63
2018-05-13T03:10:17.230Z,66.22
2018-05-13T03:12:43.584Z,66.37
2018-05-13T03:15:10.021Z,66.97
2018-05-13T03:17:36.468Z,67.53
2018-05-13T03:20:03.073Z,67.99
2018-05-13T03:22:29.554Z,68.36
2018-05-13T03:24:57.464Z,68.52
2018-05-13T03:27:23.880Z,68.64
2018-05-13T03:29:50.305Z,69.03
2018-05-13T03:32:17.507Z,68.61
2018-05-13T03:34:44.102Z,69.04
2018-05-13T03:37:11.266Z,69.29
2018-05-13T03:39:37.814Z,69.45
2018-05-13T03:42:04.470Z,69.64
2018-05-13T03:44:30.872Z,69.63
2018-05-13T03:46:57.377Z,70.03
2018-05-13T03:49:24.524Z,70.41
2018-05-13T03:51:51.643Z,70.66
2018-05-13T03:54:18.115Z,71.11
2018-05-13T03:56:45.261Z,71.14
2018-05-13T03:59:12.367Z,70.73
2018-05-13T04:01:38.772Z,70.48
2018-05-13T04:04:05.400Z,70.37
2018-05-13T04:06:31.904Z,70.36
2018-05-13T04:09:16.661Z,70.25
2018-05-13T04:12:02.992Z,70.25
2018-05-13T04:14:48.524Z,70.23
2018-05-13T04:17:15.216Z,69.91
2018-05-13T04:19:41.677Z,69.75
2018-05-13T04:22:08.061Z,69.23
2018-05-13T04:24:35.537Z,68.61
2018-05-13T04:27:02.654Z,68.61
2018-05-13T04:29:29.433Z,68.68
2018-05-13T04:31:55.787Z,67.59
2018-05-13T04:34:22.157Z,67.61
2018-05-13T04:36:49.308Z,66.96
2018-05-13T04:39:15.799Z,67.42
2018-05-13T04:41:42.226Z,67.44
2018-05-13T04:44:08.697Z,67.40
2018-05-13T04:46:35.082Z,66.75
2018-05-13T04:49:01.460Z,67.22
2018-05-13T04:51:27.872Z,66.65
2018-05-13T04:53:54.581Z,66.54
2018-05-13T04:56:21.047Z,66.49
2018-05-13T04:58:47.449Z,66.07
2018-05-13T05:01:13.809Z,66.55
2018-05-13T05:03:40.291Z,66.85
2018-05-13T05:06:07.536Z,67.14
2018-05-13T05:08:33.915Z,67.77
2018-05-13T05:11:00.632Z,67.69
2018-05-13T05:13:27.054Z,67.93
2018-05-13T05:15:54.182Z,67.13
2018-05-13T05:18:20.618Z,66.45
2018-05-13T05:20:47.253Z,65.84
2018-05-13T05:23:13.628Z,65.90
2018-05-13T05:25:40.034Z,66.14
2018-05-13T05:28:07.192Z,65.61
2018-05-13T05:30:34.286Z,65.29
2018-05-13T05:33:00.675Z,65.29
2018-05-13T05:35:27.849Z,65.31
2018-05-13T05:37:54.293Z,64.55
2018-05-13T05:40:20.693Z,64.72
2018-05-13T05:42:47.825Z,64.56
2018-05-13T05:45:14.945Z,63.32
2018-05-13T05:47:41.489Z,62.98
2018-05-13T05:50:07.913Z,63.75
2018-05-13T05:52:34.298Z,62.77
2018-05-13T05:55:00.704Z,62.41
2018-05-13T05:57:27.187Z,61.20
2018-05-13T05:59:53.582Z,60.61
2018-05-13T06:02:20.797Z,60.58
2018-05-13T06:04:47.396Z,60.57
2018-05-13T06:07:15.326Z,58.14
2018-05-13T06:09:41.845Z,57.69
2018-05-13T06:12:08.957Z,58.08
2018-05-13T06:14:35.401Z,59.22
2018-05-13T06:17:02.094Z,59.35
2018-05-13T06:19:28.478Z,58.50
2018-05-13T06:21:54.934Z,57.35
2018-05-13T06:24:21.305Z,57.67
2018-05-13T06:26:47.768Z,58.49
2018-05-13T06:29:14.201Z,57.22
2018-05-13T06:31:40.590Z,56.58
2018-05-13T06:34:07.788Z,55.90
2018-05-13T06:36:34.174Z,58.01
2018-05-13T06:39:01.324Z,57.54
2018-05-13T06:41:28.556Z,57.78
2018-05-13T06:43:55.016Z,58.96
2018-05-13T06:46:22.209Z,58.07
2018-05-13T06:48:48.840Z,57.08
2018-05-13T06:51:15.347Z,58.22
2018-05-13T06:53:41.618Z,57.90
2018-05-13T06:56:08.022Z,57.66
2018-05-13T06:58:34.511Z,59.10
2018-05-13T07:01:00.940Z,58.48
2018-05-13T07:03:27.480Z,59.11
2018-05-13T07:05:53.974Z,59.82
2018-05-13T07:08:20.370Z,59.82
2018-05-13T07:10:46.786Z,60.03
2018-05-13T07:13:13.898Z,58.65
2018-05-13T07:15:40.390Z,57.54
2018-05-13T07:18:06.936Z,57.23
2018-05-13T07:20:33.481Z,58.47
2018-05-13T07:23:00.044Z,59.63
2018-05-13T07:25:26.548Z,60.18
2018-05-13T07:27:52.935Z,59.72
2018-05-13T07:30:19.344Z,60.51
2018-05-13T07:32:45.802Z,61.30
2018-05-13T07:35:13.027Z,61.17
2018-05-13T07:37:39.471Z,60.49
2018-05-13T07:40:05.862Z,59.19
2018-05-13T07:42:32.586Z,57.96
2018-05-13T07:44:59.109Z,58.54
2018-05-13T07:47:26.347Z,58.40
2018-05-13T07:49:53.017Z,59.12
2018-05-13T07:52:19.846Z,59.69
2018-05-13T07:54:47.412Z,58.71
2018-05-13T07:57:13.813Z,60.47
2018-05-13T07:59:40.259Z,60.01
2018-05-13T08:02:07.467Z,59.97
2018-05-13T08:04:34.048Z,61.29
2018-05-13T08:07:01.284Z,61.76
2018-05-13T08:09:27.831Z,62.99
2018-05-13T08:11:54.219Z,62.56
2018-05-13T08:14:20.606Z,61.98
2018-05-13T08:16:47.777Z,59.76
2018-05-13T08:19:14.270Z,60.51
2018-05-13T08:21:40.641Z,60.41
2018-05-13T08:24:07.075Z,58.94
2018-05-13T08:26:33.677Z,57.10
2018-05-13T08:29:00.090Z,57.62
2018-05-13T08:31:26.596Z,58.62
2018-05-13T08:33:53.050Z,59.06
2018-05-13T08:36:19.405Z,59.60
2018-05-13T08:38:47.729Z,58.95
2018-05-13T08:41:14.138Z,57.72
2018-05-13T08:43:41.300Z,58.53
2018-05-13T08:46:07.991Z,59.16
2018-05-13T08:48:34.445Z,60.28
2018-05-13T08:51:01.640Z,59.28
2018-05-13T08:53:28.916Z,60.38
2018-05-13T08:55:55.539Z,59.75
2018-05-13T08:58:22.247Z,60.06
2018-05-13T09:00:49.640Z,60.53
2018-05-13T09:03:16.295Z,59.81
2018-05-13T09:05:42.772Z,57.60
2018-05-13T09:08:10.166Z,59.18
2018-05-13T09:10:36.749Z,58.35
2018-05-13T09:13:04.089Z,59.66
2018-05-13T09:15:31.349Z,61.74
2018-05-13T09:17:58.074Z,60.29
2018-05-13T09:20:25.571Z,62.88
2018-05-13T09:22:52.869Z,64.71
2018-05-13T09:25:19.295Z,63.46
2018-05-13T09:27:46.203Z,61.97
2018-05-13T09:30:12.950Z,63.44
2018-05-13T09:32:39.344Z,62.79
2018-05-13T09:35:05.857Z,62.25
2018-05-13T09:37:32.894Z,64.89
2018-05-13T09:39:59.399Z,65.74
2018-05-13T09:42:25.791Z,66.17
2018-05-13T09:44:53.898Z,65.88
2018-05-13T09:47:20.358Z,65.13
2018-05-13T09:49:46.837Z,65.72
2018-05-13T09:52:14.017Z,65.79
2018-05-13T09:54:40.387Z,63.81
2018-05-13T09:57:06.811Z,63.17
2018-05-13T09:59:33.280Z,61.81
2018-05-13T10:01:59.741Z,61.66
2018-05-13T10:04:26.938Z,62.22
2018-05-13T10:06:53.820Z,63.12
2018-05-13T10:09:21.129Z,63.69
2018-05-13T10:11:47.655Z,66.38
2018-05-13T10:14:14.211Z,65.29
2018-05-13T10:16:40.590Z,66.46
2018-05-13T10:19:08.011Z,65.31
2018-05-13T10:21:34.669Z,64.65
2018-05-13T10:24:02.048Z,66.33
2018-05-13T10:26:28.433Z,66.57
2018-05-13T10:28:55.038Z,68.35
2018-05-13T10:31:21.757Z,68.63
2018-05-13T10:33:48.154Z,69.38
2018-05-13T10:36:14.583Z,68.90
2018-05-13T10:38:41.987Z,69.70
2018-05-13T10:41:08.479Z,68.94
2018-05-13T10:43:34.919Z,67.57
2018-05-13T10:46:02.096Z,66.72
2018-05-13T10:48:28.584Z,67.23
2018-05-13T10:50:55.194Z,67.49
2018-05-13T10:53:21.726Z,68.59
2018-05-13T10:55:48.116Z,67.70
2018-05-13T10:58:15.353Z,68.03
2018-05-13T11:00:42.427Z,67.52
2018-05-13T11:03:09.634Z,67.73
2018-05-13T11:05:36.045Z,67.33
2018-05-13T11:08:02.760Z,67.82
2018-05-13T11:10:29.346Z,67.01
2018-05-13T11:12:55.896Z,66.89
2018-05-13T11:15:23.442Z,65.95
2018-05-13T11:17:51.384Z,65.91
2018-05-13T11:20:17.816Z,66.39
2018-05-13T11:22:44.217Z,65.83
2018-05-13T11:25:11.382Z,65.71
2018-05-13T11:27:38.100Z,65.21
2018-05-13T11:30:04.857Z,64.20
2018-05-13T11:32:31.239Z,65.49
2018-05-13T11:34:57.752Z,64.65
2018-05-13T11:37:24.438Z,64.32
2018-05-13T11:39:51.993Z,63.36
2018-05-13T11:42:18.406Z,63.38
2018-05-13T11:44:45.710Z,62.76
2018-05-13T11:47:12.228Z,64.13
2018-05-13T11:49:39.513Z,63.78
2018-05-13T11:52:06.232Z,63.94
2018-05-13T11:54:32.598Z,62.81
2018-05-13T11:56:59.384Z,63.16
2018-05-13T11:59:26.538Z,64.07
2018-05-13T12:01:53.901Z,64.13
2018-05-13T12:04:21.092Z,65.09
2018-05-13T12:06:47.554Z,65.09
2018-05-13T12:09:13.968Z,65.27
2018-05-13T12:11:40.526Z,65.67
2018-05-13T12:14:07.077Z,65.02
2018-05-13T12:16:34.204Z,63.69
2018-05-13T12:19:01.474Z,62.50
2018-05-13T12:21:27.787Z,61.01
2018-05-13T12:23:55.189Z,61.17
2018-05-13T12:26:21.574Z,60.36
2018-05-13T12:28:48.037Z,60.82
2018-05-13T12:31:14.442Z,60.94
2018-05-13T12:33:40.881Z,61.11
2018-05-13T12:36:07.280Z,61.21
2018-05-13T12:38:33.737Z,62.24
2018-05-13T12:41:00.165Z,62.50
2018-05-13T12:43:26.517Z,60.01
2018-05-13T12:45:53.025Z,60.33
2018-05-13T12:48:19.465Z,58.58
2018-05-13T12:50:45.853Z,57.69
2018-05-13T12:53:12.257Z,57.31
2018-05-13T12:55:39.398Z,55.98
2018-05-13T12:58:05.860Z,58.30
2018-05-13T13:00:32.240Z,57.75
2018-05-13T13:02:58.620Z,57.10
2018-05-13T13:05:25.011Z,56.45
2018-05-13T13:07:51.692Z,56.20
2018-05-13T13:10:18.109Z,54.25
2018-05-13T13:12:45.242Z,51.85
2018-05-13T13:15:11.805Z,54.79
2018-05-13T13:17:45.893Z,52.99
2018-05-13T13:20:13.471Z,54.45
2018-05-13T13:22:40.683Z,57.62
2018-05-13T13:25:07.124Z,58.46
2018-05-13T13:27:33.588Z,58.24
2018-05-13T13:30:01.063Z,57.85
2018-05-13T13:32:27.571Z,55.10
2018-05-13T13:34:54.332Z,54.53
2018-05-13T13:37:21.454Z,54.94
2018-05-13T13:39:47.875Z,56.60
2018-05-13T13:42:14.265Z,59.38
2018-05-13T13:44:40.701Z,60.86
2018-05-13T13:47:07.099Z,60.86
2018-05-13T13:49:34.241Z,60.08
2018-05-13T13:52:01.716Z,58.37
2018-05-13T13:54:28.919Z,59.98
2018-05-13T13:56:55.606Z,59.26
2018-05-13T13:59:21.994Z,58.30
2018-05-13T14:01:49.168Z,57.53
2018-05-13T14:04:16.320Z,56.46
2018-05-13T14:06:43.442Z,53.17
2018-05-13T14:09:09.943Z,51.75
2018-05-13T14:11:36.308Z,53.65
2018-05-13T14:14:02.734Z,51.71
2018-05-13T14:16:29.287Z,50.21
2018-05-13T14:18:55.704Z,53.92
2018-05-13T14:21:22.138Z,54.41
2018-05-13T14:23:48.852Z,54.66
2018-05-13T14:26:15.995Z,54.20
2018-05-13T14:28:42.402Z,54.46
2018-05-13T14:31:09.555Z,59.25
2018-05-13T14:33:36.753Z,60.91
2018-05-13T14:36:03.275Z,59.64
2018-05-13T14:38:30.042Z,60.87
2018-05-13T14:40:56.581Z,60.05
2018-05-13T14:43:22.930Z,59.08
2018-05-13T14:45:49.593Z,60.82
2018-05-13T14:48:16.473Z,58.51
2018-05-13T14:50:43.007Z,60.16
2018-05-13T14:53:09.507Z,61.15
2018-05-13T14:55:35.939Z,59.79
2018-05-13T14:58:02.405Z,59.32
2018-05-13T15:00:29.602Z,57.82
2018-05-13T15:02:56.786Z,57.98
2018-05-13T15:05:23.510Z,56.93
2018-05-13T15:07:50.645Z,57.52
2018-05-13T15:10:18.121Z,57.70
2018-05-13T15:12:44.735Z,59.29
2018-05-13T15:15:11.936Z,60.94
2018-05-13T15:17:38.401Z,62.04
2018-05-13T15:20:04.884Z,61.49
2018-05-13T15:22:33.278Z,62.64
2018-05-13T15:24:59.729Z,62.56
2018-05-13T15:27:26.182Z,63.65
2018-05-13T15:29:52.592Z,64.07
2018-05-13T15:32:26.781Z,65.40
2018-05-13T15:34:53.161Z,66.43
2018-05-13T15:37:19.681Z,66.44
2018-05-13T15:39:46.061Z,66.87
2018-05-13T15:42:13.250Z,68.12
2018-05-13T15:44:39.692Z,68.50
2018-05-13T15:47:06.987Z,68.27
2018-05-13T15:49:34.220Z,68.50
2018-05-13T15:52:01.047Z,68.48
2018-05-13T15:54:27.431Z,68.36
2018-05-13T15:56:53.809Z,68.40
2018-05-13T15:59:20.278Z,68.95
2018-05-13T16:01:47.465Z,69.04
2018-05-13T16:04:13.887Z,68.70
2018-05-13T16:06:40.364Z,69.10
2018-05-13T16:09:06.828Z,69.52
2018-05-13T16:11:34.013Z,69.63
2018-05-13T16:14:00.450Z,69.40
2018-05-13T16:16:26.905Z,69.23
2018-05-13T16:18:53.563Z,69.29
2018-05-13T16:21:20.328Z,69.12
2018-05-13T16:23:47.595Z,68.84
2018-05-13T16:26:14.188Z,69.05
2018-05-13T16:28:40.913Z,69.20
2018-05-13T16:31:07.364Z,69.28
2018-05-13T16:33:34.050Z,68.94
2018-05-13T16:36:00.437Z,69.62
2018-05-13T16:38:26.866Z,70.42
2018-05-13T16:40:53.354Z,70.08
2018-05-13T16:43:23.872Z,70.30
2018-05-13T16:45:51.051Z,70.25
2018-05-13T16:51:03.629Z,69.75
2018-05-13T16:53:42.931Z,69.17
2018-05-13T16:56:09.333Z,68.65
2018-05-13T16:58:40.251Z,68.43
2018-05-13T17:01:07.147Z,69.38
2018-05-13T17:03:40.607Z,71.04
2018-05-13T17:06:07.789Z,71.50
2018-05-13T17:08:34.490Z,71.78
2018-05-13T17:11:00.949Z,71.44
2018-05-13T17:13:27.464Z,70.96
2018-05-13T17:15:54.715Z,70.86
2018-05-13T17:18:21.866Z,71.48
2018-05-13T17:20:48.285Z,71.17
2018-05-13T17:23:16.695Z,70.68
2018-05-13T17:25:43.101Z,69.97
2018-05-13T17:28:09.827Z,70.95
2018-05-13T17:30:36.999Z,71.58
2018-05-13T17:33:03.634Z,70.74
2018-05-13T17:35:30.210Z,70.46
2018-05-13T17:37:57.965Z,70.97
2018-05-13T17:40:24.522Z,71.44
2018-05-13T17:42:51.225Z,71.58
2018-05-13T17:45:17.868Z,71.58
2018-05-13T17:47:44.369Z,72.02
2018-05-13T17:50:10.821Z,72.02
2018-05-13T17:52:37.286Z,71.75
2018-05-13T17:55:04.752Z,72.39
2018-05-13T17:57:31.606Z,72.31
2018-05-13T17:59:59.001Z,72.96
2018-05-13T18:05:00.841Z,73.16
2018-05-13T18:07:28.538Z,73.16
2018-05-13T18:10:00.251Z,73.25
2018-05-13T18:12:26.715Z,73.30
2018-05-13T18:15:01.874Z,73.67
2018-05-13T18:17:28.917Z,73.79
2018-05-13T18:19:55.312Z,74.41
2018-05-13T18:22:21.769Z,74.99
2018-05-13T18:24:49.600Z,75.52
2018-05-13T18:27:16.101Z,75.31
2018-05-13T18:29:42.663Z,74.48
2018-05-13T18:34:50.551Z,74.99
2018-05-13T18:37:16.942Z,74.98
2018-05-13T18:39:44.191Z,75.21
2018-05-13T18:42:10.701Z,75.58
2018-05-13T18:44:37.272Z,76.46
2018-05-13T18:47:03.888Z,76.66
2018-05-13T18:49:30.477Z,76.84
2018-05-13T18:51:57.093Z,77.09
2018-05-13T18:54:25.784Z,77.50
2018-05-13T18:56:54.000Z,77.72
2018-05-13T18:59:21.661Z,77.49
2018-05-13T19:01:49.807Z,78.32
2018-05-13T19:04:16.566Z,78.83
2018-05-13T19:06:44.189Z,78.64
2018-05-13T19:09:11.516Z,78.51
2018-05-13T19:11:38.090Z,78.78
2018-05-13T19:14:04.431Z,79.37
2018-05-13T19:16:30.832Z,79.45
2018-05-13T19:18:57.482Z,79.87
2018-05-13T19:21:24.329Z,79.95
2018-05-13T19:23:51.003Z,80.12
2018-05-13T19:26:17.601Z,80.52
2018-05-13T19:28:44.717Z,81.95
2018-05-13T19:31:11.091Z,81.63
2018-05-13T19:33:37.502Z,81.15
2018-05-13T19:36:03.876Z,81.34
2018-05-13T19:38:30.352Z,82.87
2018-05-13T19:40:56.958Z,82.19
2018-05-13T19:43:23.536Z,82.37
2018-05-13T19:45:49.945Z,82.01
2018-05-13T19:48:17.407Z,81.70
2018-05-13T19:50:44.586Z,81.77
2018-05-13T19:53:12.727Z,82.16
2018-05-13T19:55:39.526Z,83.06
2018-05-13T19:58:05.921Z,81.76
2018-05-13T20:00:33.587Z,82.48
2018-05-13T20:03:01.009Z,82.67
2018-05-13T20:05:27.503Z,82.66
2018-05-13T20:07:54.732Z,83.23
2018-05-13T20:10:21.227Z,82.84
2018-05-13T20:12:47.749Z,82.33
2018-05-13T20:15:14.216Z,84.09
2018-05-13T20:17:41.673Z,84.09
2018-05-13T20:20:08.806Z,84.45
2018-05-13T20:22:53.753Z,84.72
2018-05-13T20:25:21.822Z,84.75
2018-05-13T20:27:48.346Z,85.60
2018-05-13T20:30:15.015Z,86.29
2018-05-13T20:32:41.399Z,86.61
2018-05-13T20:35:07.831Z,87.31
2018-05-13T20:37:35.302Z,84.78
2018-05-13T20:40:04.375Z,84.82
2018-05-13T20:42:33.613Z,85.04
2018-05-13T20:45:01.589Z,82.70
2018-05-13T20:47:30.019Z,83.07
2018-05-13T20:49:57.487Z,83.01
2018-05-13T20:52:25.833Z,83.05
2018-05-13T20:54:52.398Z,83.10
2018-05-13T20:57:21.400Z,82.82
2018-05-13T20:59:47.993Z,82.88
2018-05-13T21:02:14.468Z,82.01
2018-05-13T21:04:40.959Z,82.00
2018-05-13T21:07:07.656Z,82.92
2018-05-13T21:09:34.108Z,82.90
2018-05-13T21:12:00.655Z,82.63
2018-05-13T21:14:27.365Z,82.88
2018-05-13T21:16:53.930Z,83.39
2018-05-13T21:19:20.420Z,82.96
2018-05-13T21:21:46.887Z,83.01
2018-05-13T21:24:13.591Z,83.27
2018-05-13T21:26:40.287Z,83.45
2018-05-13T21:29:06.718Z,83.94
2018-05-13T21:31:33.461Z,83.31
2018-05-13T21:33:59.941Z,83.74
2018-05-13T21:36:26.556Z,83.83
2018-05-13T21:38:54.460Z,84.27
2018-05-13T21:41:20.833Z,84.51
2018-05-13T21:43:47.352Z,85.08
2018-05-13T21:46:13.799Z,85.48
2018-05-13T21:48:40.398Z,85.22
2018-05-13T21:51:06.964Z,85.27
2018-05-13T21:53:33.408Z,84.49
2018-05-13T21:55:59.825Z,83.79
2018-05-13T21:58:26.282Z,84.67
2018-05-13T22:00:53.500Z,85.67
2018-05-13T22:03:20.061Z,84.80
2018-05-13T22:05:46.480Z,84.26
2018-05-13T22:08:12.965Z,83.94
2018-05-13T22:10:39.426Z,84.27
2018-05-13T22:13:05.860Z,83.37
2018-05-13T22:15:32.208Z,84.39
2018-05-13T22:17:58.794Z,84.14
2018-05-13T22:20:25.220Z,84.64
2018-05-13T22:22:52.320Z,83.91
2018-05-13T22:25:18.801Z,84.50
2018-05-13T22:27:45.185Z,84.63
2018-05-13T22:30:13.093Z,84.19
2018-05-13T22:35:13.246Z,85.80
2018-05-13T22:37:40.417Z,84.49
2018-05-13T22:40:06.814Z,85.24
2018-05-13T22:42:34.025Z,85.48
2018-05-13T22:45:00.566Z,85.43
2018-05-13T22:47:27.090Z,85.82
2018-05-13T22:49:53.549Z,84.91
2018-05-13T22:52:20.072Z,84.91
2018-05-13T22:54:47.520Z,85.66
2018-05-13T22:57:14.005Z,85.69
2018-05-13T22:59:41.142Z,85.65
2018-05-13T23:02:08.316Z,85.90
2018-05-13T23:04:34.716Z,86.00
2018-05-13T23:07:02.573Z,85.95
2018-05-13T23:09:29.010Z,86.20
2018-05-13T23:11:55.692Z,87.05
2018-05-13T23:14:22.152Z,86.06
2018-05-13T23:16:49.341Z,85.82
2018-05-13T23:19:15.883Z,86.17
2018-05-13T23:21:44.224Z,85.91
2018-05-13T23:24:10.739Z,85.55
2018-05-13T23:26:37.182Z,85.40
2018-05-13T23:29:03.645Z,85.16
2018-05-13T23:31:30.038Z,85.43
2018-05-13T23:33:56.438Z,85.33
2018-05-13T23:36:23.665Z,85.82
2018-05-13T23:38:50.448Z,85.58
2018-05-13T23:41:16.960Z,85.21
2018-05-13T23:43:43.335Z,85.14
2018-05-13T23:46:09.765Z,84.57
2018-05-13T23:48:36.169Z,85.23
2018-05-13T23:51:03.611Z,84.97
2018-05-13T23:53:30.774Z,85.07
2018-05-13T23:55:57.957Z,84.70
2018-05-13T23:58:24.365Z,84.47
